Neva Lux — UGZF — position and weather

sailwx.info

Track history (hours):
 
Tides and Currents Weather Stations Pressure Air Temp Water Temp Dewpoint Dewpoint Depression Visibility Wind Speed Wind Dir Waves Ship Positions

Neva Lux

Last reported at 2014-Sep-23 20:33 UTC. Time now 2014-Sep-24 00:26 UTC.
Position N 59°53' E 030°11'.

Length 65 m; draft 3.2 m.

Type: Tanker. MMSI: 273426540.

Date/timePositionNaut miles runAvg speedWind from/ knotsBaromVisibWave heightAir tempDewpointWater temp
2014-Sep-23 20:33N 59°53' E 030°11'2 1.9
2014-Sep-23 19:22N 59°55' E 030°14'0 0.0
2014-Sep-23 18:33N 59°55' E 030°14'0 0.0
2014-Sep-23 17:33N 59°55' E 030°14'0 0.0
2014-Sep-23 16:33N 59°55' E 030°14'0 0.0
2014-Sep-23 15:34N 59°55' E 030°14'2 2.1
2014-Sep-23 14:29N 59°53' E 030°11'4 1.4
2014-Sep-23 11:30N 59°55' E 030°03'5 0.2
2014-Sep-22 13:33N 59°55' E 030°13'0 0.0
2014-Sep-22 04:33N 59°55' E 030°13'0 0.0
2014-Sep-22 03:33N 59°55' E 030°13'0 0.0
2014-Sep-22 00:10N 59°55' E 030°13'0 0.0
2014-Sep-21 23:33N 59°55' E 030°13'0 0.0
2014-Sep-21 22:33N 59°55' E 030°13'0 0.0
2014-Sep-21 20:25N 59°55' E 030°13'0 0.0
2014-Sep-21 19:33N 59°55' E 030°13'0 0.0
2014-Sep-21 18:33N 59°55' E 030°13'0 0.3
2014-Sep-21 17:14N 59°55' E 030°14'0 0.0
2014-Sep-21 15:29N 59°55' E 030°14'0 0.0
2014-Sep-21 14:07N 59°55' E 030°14'0 0.0
2014-Sep-21 13:20N 59°55' E 030°14'0 0.2
2014-Sep-21 12:30N 59°55' E 030°14'2 0.6
2014-Sep-21 09:29N 59°53' E 030°12'1 1.5
2014-Sep-21 08:33N 59°55' E 030°13'0 0.0
2014-Sep-21 07:33N 59°55' E 030°13'0 0.0
2014-Sep-21 06:32N 59°55' E 030°13'0 0.0
2014-Sep-21 05:33N 59°55' E 030°13'0 0.0
2014-Sep-21 04:32N 59°55' E 030°13'0 0.0
2014-Sep-21 03:33N 59°55' E 030°13'0 0.0
2014-Sep-21 02:33N 59°55' E 030°13'0 0.0
2014-Sep-21 01:30N 59°55' E 030°13'0 0.0
2014-Sep-21 00:33N 59°55' E 030°13'0 0.0
2014-Sep-20 23:32N 59°55' E 030°13'0 0.0
2014-Sep-20 22:33N 59°55' E 030°13'0 0.0
2014-Sep-20 21:33N 59°55' E 030°13'0 0.0
2014-Sep-20 20:33N 59°55' E 030°13'0 0.0
2014-Sep-20 19:33N 59°55' E 030°13'0 0.0
2014-Sep-20 18:33N 59°55' E 030°13'0 0.0
2014-Sep-20 17:32N 59°55' E 030°13'0 0.0
2014-Sep-20 16:30N 59°55' E 030°13'0 0.0
2014-Sep-20 06:26N 59°55' E 030°14'0 0.0
2014-Sep-20 05:33N 59°55' E 030°14'0 0.0
2014-Sep-20 04:33N 59°55' E 030°14'0 0.0
2014-Sep-20 03:33N 59°55' E 030°14'0 0.0
2014-Sep-20 02:33N 59°55' E 030°14'0 0.0
2014-Sep-20 01:33N 59°55' E 030°14'0 0.0
2014-Sep-20 00:33N 59°55' E 030°14'0 0.0
2014-Sep-19 23:33N 59°55' E 030°14'0 0.0
2014-Sep-19 22:33N 59°55' E 030°14'0 0.0
2014-Sep-19 21:33N 59°55' E 030°14'1 0.8
2014-Sep-19 20:33N 59°54' E 030°13'1 0.5
2014-Sep-19 18:30N 59°53' E 030°12'0 0.0
2014-Sep-19 17:29N 59°53' E 030°12'0 0.0
2014-Sep-19 16:25N 59°53' E 030°12'1 0.1
2014-Sep-19 07:16N 59°53' E 030°12'1 0.1
2014-Sep-18 21:31N 59°53' E 030°12'  
2014-Sep-15 08:33N 59°54' E 030°13'1 1.1
2014-Sep-15 07:25N 59°55' E 030°14'0 0.0
2014-Sep-15 06:33N 59°55' E 030°14'0 0.0
2014-Sep-15 05:33N 59°55' E 030°14'0 0.0
2014-Sep-15 04:33N 59°55' E 030°14'0 0.0
2014-Sep-15 03:33N 59°55' E 030°14'0 0.0
2014-Sep-15 02:33N 59°55' E 030°14'0 0.0
2014-Sep-15 01:33N 59°55' E 030°14'0 0.0
2014-Sep-15 00:33N 59°55' E 030°14'0 0.0
2014-Sep-14 23:33N 59°55' E 030°14'0 0.0
2014-Sep-14 22:33N 59°55' E 030°14'0 0.0
2014-Sep-14 21:33N 59°55' E 030°14'0 0.0
2014-Sep-14 20:33N 59°55' E 030°14'0 0.0
2014-Sep-14 19:33N 59°55' E 030°14'0 0.0
2014-Sep-14 18:33N 59°55' E 030°14'0 0.0
2014-Sep-14 17:33N 59°55' E 030°14'0 0.0
2014-Sep-14 16:33N 59°55' E 030°14'0 0.0
2014-Sep-14 15:33N 59°55' E 030°14'0 0.0
2014-Sep-14 14:33N 59°55' E 030°14'0 0.0
2014-Sep-14 13:34N 59°55' E 030°14'  
Track history (hours):
 
Tides and Currents Weather Stations Pressure Air Temp Water Temp Dewpoint Dewpoint Depression Visibility Wind Speed Wind Dir Waves Ship Positions

Neva Lux

Last reported at 2014-Sep-23 20:33 UTC. Time now 2014-Sep-24 00:26 UTC.
Position N 59°53' E 030°11'.

Length 65 m; draft 3.2 m.

Type: Tanker. MMSI: 273426540.

Date/timePositionNaut miles runAvg speedWind from/ knotsBaromVisibWave heightAir tempDewpointWater temp
2014-Sep-23 20:33N 59°53' E 030°11'2 1.9
2014-Sep-23 19:22N 59°55' E 030°14'0 0.0
2014-Sep-23 18:33N 59°55' E 030°14'0 0.0
2014-Sep-23 17:33N 59°55' E 030°14'0 0.0
2014-Sep-23 16:33N 59°55' E 030°14'0 0.0
2014-Sep-23 15:34N 59°55' E 030°14'2 2.1
2014-Sep-23 14:29N 59°53' E 030°11'4 1.4
2014-Sep-23 11:30N 59°55' E 030°03'5 0.2
2014-Sep-22 13:33N 59°55' E 030°13'0 0.0
2014-Sep-22 04:33N 59°55' E 030°13'0 0.0
2014-Sep-22 03:33N 59°55' E 030°13'0 0.0
2014-Sep-22 00:10N 59°55' E 030°13'0 0.0
2014-Sep-21 23:33N 59°55' E 030°13'0 0.0
2014-Sep-21 22:33N 59°55' E 030°13'0 0.0
2014-Sep-21 20:25N 59°55' E 030°13'0 0.0
2014-Sep-21 19:33N 59°55' E 030°13'0 0.0
2014-Sep-21 18:33N 59°55' E 030°13'0 0.3
2014-Sep-21 17:14N 59°55' E 030°14'0 0.0
2014-Sep-21 15:29N 59°55' E 030°14'0 0.0
2014-Sep-21 14:07N 59°55' E 030°14'0 0.0
2014-Sep-21 13:20N 59°55' E 030°14'0 0.2
2014-Sep-21 12:30N 59°55' E 030°14'2 0.6
2014-Sep-21 09:29N 59°53' E 030°12'1 1.5
2014-Sep-21 08:33N 59°55' E 030°13'0 0.0
2014-Sep-21 07:33N 59°55' E 030°13'0 0.0
2014-Sep-21 06:32N 59°55' E 030°13'0 0.0
2014-Sep-21 05:33N 59°55' E 030°13'0 0.0
2014-Sep-21 04:32N 59°55' E 030°13'0 0.0
2014-Sep-21 03:33N 59°55' E 030°13'0 0.0
2014-Sep-21 02:33N 59°55' E 030°13'0 0.0
2014-Sep-21 01:30N 59°55' E 030°13'0 0.0
2014-Sep-21 00:33N 59°55' E 030°13'0 0.0
2014-Sep-20 23:32N 59°55' E 030°13'0 0.0
2014-Sep-20 22:33N 59°55' E 030°13'0 0.0
2014-Sep-20 21:33N 59°55' E 030°13'0 0.0
2014-Sep-20 20:33N 59°55' E 030°13'0 0.0
2014-Sep-20 19:33N 59°55' E 030°13'0 0.0
2014-Sep-20 18:33N 59°55' E 030°13'0 0.0
2014-Sep-20 17:32N 59°55' E 030°13'0 0.0
2014-Sep-20 16:30N 59°55' E 030°13'0 0.0
2014-Sep-20 06:26N 59°55' E 030°14'0 0.0
2014-Sep-20 05:33N 59°55' E 030°14'0 0.0
2014-Sep-20 04:33N 59°55' E 030°14'0 0.0
2014-Sep-20 03:33N 59°55' E 030°14'0 0.0
2014-Sep-20 02:33N 59°55' E 030°14'0 0.0
2014-Sep-20 01:33N 59°55' E 030°14'0 0.0
2014-Sep-20 00:33N 59°55' E 030°14'0 0.0
2014-Sep-19 23:33N 59°55' E 030°14'0 0.0
2014-Sep-19 22:33N 59°55' E 030°14'0 0.0
2014-Sep-19 21:33N 59°55' E 030°14'1 0.8
2014-Sep-19 20:33N 59°54' E 030°13'1 0.5
2014-Sep-19 18:30N 59°53' E 030°12'0 0.0
2014-Sep-19 17:29N 59°53' E 030°12'0 0.0
2014-Sep-19 16:25N 59°53' E 030°12'1 0.1
2014-Sep-19 07:16N 59°53' E 030°12'1 0.1
2014-Sep-18 21:31N 59°53' E 030°12'  
2014-Sep-15 08:33N 59°54' E 030°13'1 1.1
2014-Sep-15 07:25N 59°55' E 030°14'0 0.0
2014-Sep-15 06:33N 59°55' E 030°14'0 0.0
2014-Sep-15 05:33N 59°55' E 030°14'0 0.0
2014-Sep-15 04:33N 59°55' E 030°14'0 0.0
2014-Sep-15 03:33N 59°55' E 030°14'0 0.0
2014-Sep-15 02:33N 59°55' E 030°14'0 0.0
2014-Sep-15 01:33N 59°55' E 030°14'0 0.0
2014-Sep-15 00:33N 59°55' E 030°14'0 0.0
2014-Sep-14 23:33N 59°55' E 030°14'0 0.0
2014-Sep-14 22:33N 59°55' E 030°14'0 0.0
2014-Sep-14 21:33N 59°55' E 030°14'0 0.0
2014-Sep-14 20:33N 59°55' E 030°14'0 0.0
2014-Sep-14 19:33N 59°55' E 030°14'0 0.0
2014-Sep-14 18:33N 59°55' E 030°14'0 0.0
2014-Sep-14 17:33N 59°55' E 030°14'0 0.0
2014-Sep-14 16:33N 59°55' E 030°14'0 0.0
2014-Sep-14 15:33N 59°55' E 030°14'0 0.0
2014-Sep-14 14:33N 59°55' E 030°14'0 0.0
2014-Sep-14 13:34N 59°55' E 030°14'  

Dump ship's entire track history